createdAt,value
2023-03-07T00:00:16.000Z,0
2023-03-07T00:01:32.000Z,0
2023-03-07T00:02:48.000Z,0
2023-03-07T00:04:05.000Z,0
2023-03-07T00:05:21.000Z,0
2023-03-07T00:06:37.000Z,0
2023-03-07T00:07:53.700Z,0
2023-03-07T00:09:09.000Z,0
2023-03-07T00:10:26.000Z,0
2023-03-07T00:11:41.000Z,0
2023-03-07T00:12:57.000Z,0
2023-03-07T00:14:13.000Z,0
2023-03-07T00:15:29.000Z,0
2023-03-07T00:16:46.000Z,0
2023-03-07T00:18:02.000Z,0
2023-03-07T00:19:18.000Z,0
2023-03-07T00:20:34.000Z,0
2023-03-07T00:21:50.843Z,0
2023-03-07T00:23:07.105Z,0
2023-03-07T00:24:23.000Z,0
2023-03-07T00:25:39.000Z,0
2023-03-07T00:26:55.000Z,0
2023-03-07T00:28:10.000Z,0
2023-03-07T00:29:27.000Z,0
2023-03-07T00:30:43.000Z,0
2023-03-07T00:31:59.000Z,0
2023-03-07T00:33:15.000Z,0
2023-03-07T00:34:31.000Z,0
2023-03-07T00:35:48.000Z,0
2023-03-07T00:37:04.000Z,0
2023-03-07T00:38:20.000Z,0
2023-03-07T00:39:36.000Z,0
2023-03-07T00:40:52.000Z,0
2023-03-07T00:42:09.000Z,0
2023-03-07T00:43:25.000Z,0
2023-03-07T00:44:40.000Z,0
2023-03-07T00:45:56.560Z,0
2023-03-07T00:47:12.000Z,0
2023-03-07T00:48:29.000Z,0
2023-03-07T00:49:45.000Z,0
2023-03-07T00:51:01.000Z,0
2023-03-07T00:52:17.522Z,0
2023-03-07T00:53:33.000Z,0
2023-03-07T00:54:49.000Z,0
2023-03-07T00:56:06.000Z,0
2023-03-07T00:57:22.000Z,0
2023-03-07T00:58:38.000Z,0
2023-03-07T00:59:54.000Z,0
2023-03-07T01:01:09.000Z,0
2023-03-07T01:02:26.000Z,0
2023-03-07T01:03:42.000Z,0
2023-03-07T01:04:58.000Z,0
2023-03-07T01:06:14.000Z,0
2023-03-07T01:07:30.000Z,0
2023-03-07T01:08:47.000Z,0
2023-03-07T01:10:03.000Z,0
2023-03-07T01:11:19.000Z,0
2023-03-07T01:12:35.000Z,0
2023-03-07T01:13:51.000Z,0
2023-03-07T01:15:08.000Z,0
2023-03-07T01:16:24.000Z,0
2023-03-07T01:17:39.000Z,0
2023-03-07T01:18:55.000Z,0
2023-03-07T01:20:11.000Z,0
2023-03-07T01:21:28.000Z,0
2023-03-07T01:22:44.000Z,0
2023-03-07T01:24:00.000Z,0
2023-03-07T01:25:16.000Z,0
2023-03-07T01:26:32.000Z,0
2023-03-07T01:27:49.000Z,0
2023-03-07T01:29:05.000Z,0
2023-03-07T01:30:21.000Z,0
2023-03-07T01:31:37.000Z,0
2023-03-07T01:32:53.000Z,0
2023-03-07T01:34:08.955Z,0
2023-03-07T01:35:25.000Z,0
2023-03-07T01:36:41.342Z,0
2023-03-07T01:37:57.000Z,0
2023-03-07T01:39:13.000Z,0
2023-03-07T01:40:29.000Z,0
2023-03-07T01:41:46.000Z,0
2023-03-07T01:43:02.000Z,0
2023-03-07T01:44:18.000Z,0
2023-03-07T01:45:34.000Z,0
2023-03-07T01:46:50.000Z,0
2023-03-07T01:48:07.000Z,0
2023-03-07T01:49:23.000Z,0
2023-03-07T01:50:38.000Z,0
2023-03-07T01:51:54.000Z,0
2023-03-07T01:53:10.000Z,0
2023-03-07T01:54:27.000Z,0
2023-03-07T01:55:43.000Z,0
2023-03-07T01:56:59.000Z,0
2023-03-07T01:58:15.000Z,0
2023-03-07T01:59:31.000Z,0
2023-03-07T02:00:48.000Z,0
2023-03-07T02:02:04.000Z,0
2023-03-07T02:03:20.000Z,0
2023-03-07T02:04:36.000Z,0
2023-03-07T02:05:52.000Z,0
2023-03-07T02:07:08.000Z,0
2023-03-07T02:08:24.000Z,0
2023-03-07T02:09:40.000Z,0
2023-03-07T02:10:56.000Z,0
2023-03-07T02:12:12.000Z,0
2023-03-07T02:13:29.000Z,0
2023-03-07T02:14:44.212Z,0
2023-03-07T02:16:00.000Z,0
2023-03-07T02:17:16.000Z,0
2023-03-07T02:18:32.000Z,0
2023-03-07T02:19:49.000Z,0
2023-03-07T02:21:05.000Z,0
2023-03-07T02:22:21.000Z,0
2023-03-07T02:23:37.000Z,0
2023-03-07T02:24:53.000Z,0
2023-03-07T02:26:10.000Z,0
2023-03-07T02:27:26.000Z,0
2023-03-07T02:28:42.000Z,0
2023-03-07T02:29:58.000Z,0
2023-03-07T02:31:13.000Z,0
2023-03-07T02:32:30.000Z,0
2023-03-07T02:33:46.000Z,0
2023-03-07T02:35:02.000Z,0
2023-03-07T02:36:18.000Z,0
2023-03-07T02:37:34.000Z,0
2023-03-07T02:38:50.000Z,0
2023-03-07T02:40:07.000Z,0
2023-03-07T02:41:23.000Z,0
2023-03-07T02:42:39.000Z,0
2023-03-07T02:43:55.000Z,0
2023-03-07T02:45:11.000Z,0
2023-03-07T02:46:28.000Z,0
2023-03-07T02:47:43.000Z,0
2023-03-07T02:48:59.000Z,0
2023-03-07T02:50:15.000Z,0
2023-03-07T02:51:31.000Z,0
2023-03-07T02:52:48.058Z,0
2023-03-07T02:54:04.000Z,0
2023-03-07T02:55:20.000Z,0
2023-03-07T02:56:36.000Z,0
2023-03-07T02:57:52.000Z,0
2023-03-07T02:59:09.000Z,0
2023-03-07T03:00:25.000Z,0
2023-03-07T03:01:41.000Z,0
2023-03-07T03:02:57.000Z,0
2023-03-07T03:04:12.000Z,0
2023-03-07T03:05:29.000Z,0
2023-03-07T03:06:45.000Z,0
2023-03-07T03:08:01.000Z,0
2023-03-07T03:09:17.000Z,0
2023-03-07T03:10:33.000Z,0
2023-03-07T03:11:50.000Z,0
2023-03-07T03:13:06.000Z,0
2023-03-07T03:14:22.000Z,0
2023-03-07T03:15:38.000Z,0
2023-03-07T03:16:54.000Z,0
2023-03-07T03:18:10.944Z,0
2023-03-07T03:19:27.000Z,0
2023-03-07T03:20:42.000Z,0
2023-03-07T03:21:58.000Z,0
2023-03-07T03:23:14.000Z,0
2023-03-07T03:24:30.000Z,0
2023-03-07T03:25:47.000Z,0
2023-03-07T03:27:03.000Z,0
2023-03-07T03:28:19.000Z,0
2023-03-07T03:29:35.000Z,0
2023-03-07T03:30:51.894Z,0
2023-03-07T03:32:08.000Z,0
2023-03-07T03:33:24.000Z,0
2023-03-07T03:34:40.000Z,0
2023-03-07T03:35:56.000Z,0
2023-03-07T03:37:11.000Z,0
2023-03-07T03:38:28.000Z,0
2023-03-07T03:39:44.000Z,0
2023-03-07T03:41:00.000Z,0
2023-03-07T03:42:16.000Z,0
2023-03-07T03:43:32.000Z,0
2023-03-07T03:44:49.000Z,0
2023-03-07T03:46:05.000Z,0
2023-03-07T03:47:21.000Z,0
2023-03-07T03:48:37.000Z,0
2023-03-07T03:49:53.000Z,0
2023-03-07T03:51:10.000Z,0
2023-03-07T03:52:26.000Z,0
2023-03-07T03:53:41.000Z,0
2023-03-07T03:54:57.000Z,0
2023-03-07T03:56:13.000Z,0
2023-03-07T03:57:30.000Z,0
2023-03-07T03:58:46.000Z,0
2023-03-07T04:00:02.000Z,0
2023-03-07T04:01:18.000Z,0
2023-03-07T04:02:34.000Z,0
2023-03-07T04:03:51.000Z,0
2023-03-07T04:05:07.000Z,0
2023-03-07T04:06:23.000Z,0
2023-03-07T04:07:39.000Z,0
2023-03-07T04:08:55.741Z,0
2023-03-07T04:10:11.000Z,0
2023-03-07T04:11:27.000Z,0
2023-03-07T04:12:43.000Z,0
2023-03-07T04:13:59.000Z,0
2023-03-07T04:15:15.000Z,0
2023-03-07T04:16:31.000Z,0
2023-03-07T04:17:48.000Z,0
2023-03-07T04:19:04.000Z,0
2023-03-07T04:20:20.000Z,0
2023-03-07T04:21:36.000Z,0
2023-03-07T04:22:52.000Z,0
2023-03-07T04:24:09.000Z,0
2023-03-07T04:25:25.000Z,0
2023-03-07T04:26:40.000Z,0
2023-03-07T04:27:56.000Z,0
2023-03-07T04:29:12.000Z,0
2023-03-07T04:30:29.061Z,0
2023-03-07T04:31:45.000Z,0
2023-03-07T04:33:01.000Z,0
2023-03-07T04:34:17.000Z,0
2023-03-07T04:35:33.000Z,0
2023-03-07T04:36:50.000Z,0
2023-03-07T04:38:06.000Z,0
2023-03-07T04:39:22.000Z,0
2023-03-07T04:40:38.000Z,0
2023-03-07T04:41:54.000Z,0
2023-03-07T04:43:10.000Z,0
2023-03-07T04:44:26.000Z,0
2023-03-07T04:45:42.000Z,0
2023-03-07T04:46:58.598Z,0
2023-03-07T04:48:14.000Z,0
2023-03-07T04:49:31.000Z,0
2023-03-07T04:50:47.000Z,0
2023-03-07T04:52:03.000Z,0
2023-03-07T04:53:19.000Z,0
2023-03-07T04:54:35.000Z,0
2023-03-07T04:55:52.000Z,0
2023-03-07T04:57:08.000Z,0
2023-03-07T04:58:24.000Z,0
2023-03-07T04:59:39.000Z,0
2023-03-07T05:00:55.000Z,0
2023-03-07T05:02:12.000Z,0
2023-03-07T05:03:28.000Z,0
2023-03-07T05:04:44.398Z,0
2023-03-07T05:06:00.000Z,0
2023-03-07T05:07:16.000Z,0
2023-03-07T05:08:32.000Z,0
2023-03-07T05:09:49.000Z,0
2023-03-07T05:11:05.000Z,0
2023-03-07T05:12:21.000Z,0
2023-03-07T05:13:37.000Z,0
2023-03-07T05:14:53.000Z,0
2023-03-07T05:16:09.000Z,0
2023-03-07T05:17:25.000Z,0
2023-03-07T05:18:41.000Z,0
2023-03-07T05:19:57.000Z,0
2023-03-07T05:21:13.000Z,0
2023-03-07T05:22:30.000Z,0
2023-03-07T05:23:46.000Z,0
2023-03-07T05:25:02.434Z,0
2023-03-07T05:26:18.000Z,0
2023-03-07T05:27:34.000Z,0
2023-03-07T05:28:51.000Z,0
2023-03-07T05:30:07.000Z,0
2023-03-07T05:31:23.000Z,0
2023-03-07T05:32:38.602Z,0
2023-03-07T05:33:54.000Z,0
2023-03-07T05:35:11.000Z,0
2023-03-07T05:36:27.000Z,0
2023-03-07T05:37:43.377Z,0
2023-03-07T05:38:59.000Z,0
2023-03-07T05:40:15.000Z,0
2023-03-07T05:41:32.000Z,0
2023-03-07T05:42:48.000Z,4
2023-03-07T05:44:04.000Z,4
2023-03-07T05:45:20.000Z,4
2023-03-07T05:46:36.000Z,4
2023-03-07T05:47:53.000Z,4
2023-03-07T05:49:08.000Z,8
2023-03-07T05:50:24.000Z,4
2023-03-07T05:51:40.000Z,8
2023-03-07T05:52:56.000Z,12
2023-03-07T05:54:13.000Z,12
2023-03-07T05:55:29.000Z,12
2023-03-07T05:56:45.000Z,16
2023-03-07T05:58:01.000Z,16
2023-03-07T05:59:17.000Z,20
2023-03-07T06:00:33.000Z,24
2023-03-07T06:01:50.000Z,28
2023-03-07T06:03:06.271Z,32
2023-03-07T06:04:22.000Z,36
2023-03-07T06:05:37.000Z,36
2023-03-07T06:06:53.000Z,40
2023-03-07T06:08:10.000Z,48
2023-03-07T06:09:26.000Z,48
2023-03-07T06:10:42.000Z,56
2023-03-07T06:11:58.000Z,60
2023-03-07T06:13:14.000Z,64
2023-03-07T06:14:31.030Z,72
2023-03-07T06:15:47.000Z,80
2023-03-07T06:17:03.000Z,88
2023-03-07T06:18:19.000Z,96
2023-03-07T06:19:35.000Z,100
2023-03-07T06:20:52.000Z,104
2023-03-07T06:22:07.000Z,104
2023-03-07T06:23:23.000Z,88
2023-03-07T06:24:39.000Z,100
2023-03-07T06:25:55.000Z,100
2023-03-07T06:27:12.000Z,100
2023-03-07T06:28:28.179Z,104
2023-03-07T06:29:43.000Z,120
2023-03-07T06:30:59.000Z,136
2023-03-07T06:32:15.000Z,152
2023-03-07T06:33:32.000Z,168
2023-03-07T06:34:48.000Z,176
2023-03-07T06:36:04.000Z,188
2023-03-07T06:37:20.000Z,188
2023-03-07T06:38:36.000Z,196
2023-03-07T06:39:53.000Z,216
2023-03-07T06:41:09.144Z,252
2023-03-07T06:42:25.000Z,256
2023-03-07T06:43:41.000Z,276
2023-03-07T06:44:57.000Z,272
2023-03-07T06:46:13.000Z,292
2023-03-07T06:47:29.000Z,300
2023-03-07T06:48:45.000Z,312
2023-03-07T06:50:01.000Z,296
2023-03-07T06:51:17.000Z,296
2023-03-07T06:52:33.000Z,292
2023-03-07T06:53:50.000Z,268
2023-03-07T06:55:06.000Z,260
2023-03-07T06:56:22.000Z,284
2023-03-07T06:57:38.000Z,312
2023-03-07T06:58:54.000Z,344
2023-03-07T07:00:11.000Z,352
2023-03-07T07:01:27.000Z,360
2023-03-07T07:02:42.000Z,372
2023-03-07T07:03:58.000Z,392
2023-03-07T07:05:14.000Z,380
2023-03-07T07:06:31.000Z,352
2023-03-07T07:07:47.000Z,328
2023-03-07T07:09:03.000Z,336
2023-03-07T07:10:19.000Z,348
2023-03-07T07:11:35.000Z,344
2023-03-07T07:12:52.000Z,344
2023-03-07T07:14:08.000Z,348
2023-03-07T07:15:24.000Z,428
2023-03-07T07:16:40.000Z,488
2023-03-07T07:17:56.000Z,472
2023-03-07T07:19:12.002Z,456
2023-03-07T07:20:28.000Z,408
2023-03-07T07:21:44.000Z,452
2023-03-07T07:23:00.000Z,488
2023-03-07T07:24:16.000Z,528
2023-03-07T07:25:33.000Z,588
2023-03-07T07:26:49.000Z,648
2023-03-07T07:28:05.000Z,620
2023-03-07T07:29:21.546Z,516
2023-03-07T07:30:37.000Z,440
2023-03-07T07:31:54.000Z,388
2023-03-07T07:33:10.000Z,292
2023-03-07T07:34:26.000Z,248
2023-03-07T07:35:41.000Z,296
2023-03-07T07:36:57.000Z,352
2023-03-07T07:38:14.000Z,420
2023-03-07T07:39:30.000Z,448
2023-03-07T07:40:46.000Z,472
2023-03-07T07:42:02.000Z,532
2023-03-07T07:43:18.698Z,532
2023-03-07T07:44:34.000Z,572
2023-03-07T07:45:51.000Z,588
2023-03-07T07:47:07.000Z,608
2023-03-07T07:48:23.000Z,624
2023-03-07T07:49:39.000Z,672
2023-03-07T07:50:55.000Z,676
2023-03-07T07:52:11.000Z,724
2023-03-07T07:53:27.000Z,720
2023-03-07T07:54:43.449Z,692
2023-03-07T07:55:59.000Z,680
2023-03-07T07:57:15.840Z,684
2023-03-07T07:58:32.000Z,704
2023-03-07T07:59:48.000Z,768
2023-03-07T08:01:04.000Z,832
2023-03-07T08:02:20.000Z,880
2023-03-07T08:03:36.000Z,916
2023-03-07T08:04:53.000Z,952
2023-03-07T08:06:09.000Z,1080
2023-03-07T08:07:25.000Z,1224
2023-03-07T08:08:41.000Z,1272
2023-03-07T08:09:56.783Z,1272
2023-03-07T08:11:13.000Z,1292
2023-03-07T08:12:29.000Z,1272
2023-03-07T08:13:45.000Z,1188
2023-03-07T08:15:01.000Z,1128
2023-03-07T08:16:17.000Z,1096
2023-03-07T08:17:33.953Z,1004
2023-03-07T08:18:50.000Z,1000
2023-03-07T08:20:06.000Z,1036
2023-03-07T08:21:22.000Z,1032
2023-03-07T08:22:38.000Z,1068
2023-03-07T08:23:55.000Z,1116
2023-03-07T08:25:11.000Z,1076
2023-03-07T08:26:26.000Z,1148
2023-03-07T08:27:42.000Z,1236
2023-03-07T08:28:58.000Z,1276
2023-03-07T08:30:14.000Z,1408
2023-03-07T08:31:31.000Z,1496
2023-03-07T08:32:47.000Z,1532
2023-03-07T08:34:03.000Z,1400
2023-03-07T08:35:19.670Z,1316
2023-03-07T08:36:35.000Z,1356
2023-03-07T08:37:52.000Z,1384
2023-03-07T08:39:08.000Z,1368
2023-03-07T08:40:24.000Z,1380
2023-03-07T08:41:40.000Z,1484
2023-03-07T08:42:55.000Z,1524
2023-03-07T08:44:12.000Z,1564
2023-03-07T08:45:28.000Z,1400
2023-03-07T08:46:44.000Z,1348
2023-03-07T08:48:00.653Z,1348
2023-03-07T08:49:16.829Z,1252
2023-03-07T08:50:33.030Z,1200
2023-03-07T08:51:49.000Z,1180
2023-03-07T08:53:05.000Z,1212
2023-03-07T08:54:21.000Z,1224
2023-03-07T08:55:37.000Z,1196
2023-03-07T08:56:54.000Z,1192
2023-03-07T08:58:10.000Z,1196
2023-03-07T08:59:25.000Z,1160
2023-03-07T09:00:41.000Z,1160
2023-03-07T09:01:57.000Z,1088
2023-03-07T09:03:14.000Z,1020
2023-03-07T09:04:30.000Z,956
2023-03-07T09:05:46.000Z,1024
2023-03-07T09:07:02.000Z,1036
2023-03-07T09:08:18.000Z,1040
2023-03-07T09:09:35.000Z,1128
2023-03-07T09:10:51.000Z,1200
2023-03-07T09:12:07.000Z,1252
2023-03-07T09:13:23.000Z,1320
2023-03-07T09:14:39.000Z,1272
2023-03-07T09:15:55.000Z,1272
2023-03-07T09:17:11.000Z,1260
2023-03-07T09:18:27.000Z,1184
2023-03-07T09:19:43.000Z,1140
2023-03-07T09:20:59.000Z,1184
2023-03-07T09:22:16.000Z,1288
2023-03-07T09:23:32.000Z,1340
2023-03-07T09:24:48.000Z,1324
2023-03-07T09:26:04.530Z,1104
2023-03-07T09:27:20.000Z,1040
2023-03-07T09:28:37.000Z,972
2023-03-07T09:29:53.000Z,1140
2023-03-07T09:31:09.000Z,1328
2023-03-07T09:32:24.000Z,1272
2023-03-07T09:33:40.000Z,1212
2023-03-07T09:34:57.000Z,1184
2023-03-07T09:36:13.000Z,1200
2023-03-07T09:37:29.000Z,1236
2023-03-07T09:38:45.000Z,1236
2023-03-07T09:40:01.000Z,1180
2023-03-07T09:41:17.000Z,1196
2023-03-07T09:42:34.000Z,1244
2023-03-07T09:43:50.000Z,1268
2023-03-07T09:45:06.000Z,1308
2023-03-07T09:46:22.000Z,1336
2023-03-07T09:47:38.000Z,1444
2023-03-07T09:48:54.000Z,1500
2023-03-07T09:50:10.000Z,1480
2023-03-07T09:51:26.000Z,1432
2023-03-07T09:52:42.000Z,1484
2023-03-07T09:53:58.000Z,1608
2023-03-07T09:55:15.000Z,1772
2023-03-07T09:56:31.000Z,1884
2023-03-07T09:57:47.000Z,2028
2023-03-07T09:59:03.000Z,2048
2023-03-07T10:00:19.000Z,2140
2023-03-07T10:01:36.000Z,2356
2023-03-07T10:02:52.000Z,2504
2023-03-07T10:04:08.430Z,2736
2023-03-07T10:05:23.000Z,2944
2023-03-07T10:06:39.000Z,3152
2023-03-07T10:07:56.000Z,3132
2023-03-07T10:09:12.000Z,3068
2023-03-07T10:10:28.000Z,3148
2023-03-07T10:11:44.000Z,2956
2023-03-07T10:13:00.000Z,2860
2023-03-07T10:14:17.000Z,2792
2023-03-07T10:15:33.000Z,2828
2023-03-07T10:16:49.411Z,2932
2023-03-07T10:18:05.000Z,2972
2023-03-07T10:19:21.000Z,2996
2023-03-07T10:20:38.000Z,3088
2023-03-07T10:21:53.000Z,3156
2023-03-07T10:23:09.000Z,3428
2023-03-07T10:24:25.000Z,3636
2023-03-07T10:25:41.000Z,3472
2023-03-07T10:26:58.000Z,3668
2023-03-07T10:28:14.000Z,3840
2023-03-07T10:29:30.000Z,3972
2023-03-07T10:30:46.000Z,4108
2023-03-07T10:32:02.000Z,4184
2023-03-07T10:33:19.000Z,4120
2023-03-07T10:34:35.000Z,3772
2023-03-07T10:35:51.000Z,3656
2023-03-07T10:37:07.000Z,3584
2023-03-07T10:38:22.000Z,3608
2023-03-07T10:39:39.000Z,3428
2023-03-07T10:40:55.000Z,3540
2023-03-07T10:42:11.000Z,3496
2023-03-07T10:43:27.000Z,3540
2023-03-07T10:44:42.764Z,3612
2023-03-07T10:45:59.000Z,3992
2023-03-07T10:47:15.000Z,4260
2023-03-07T10:48:31.000Z,4180
2023-03-07T10:49:47.000Z,3948
2023-03-07T10:51:03.000Z,3768
2023-03-07T10:52:20.000Z,3740
2023-03-07T10:53:36.000Z,3668
2023-03-07T10:54:52.324Z,3724
2023-03-07T10:56:08.000Z,3744
2023-03-07T10:57:24.000Z,3376
2023-03-07T10:58:41.000Z,3176
2023-03-07T10:59:57.000Z,2936
2023-03-07T11:01:12.000Z,3136
2023-03-07T11:02:28.000Z,3236
2023-03-07T11:03:44.000Z,2888
2023-03-07T11:05:01.000Z,3132
2023-03-07T11:06:17.000Z,3444
2023-03-07T11:07:33.000Z,3476
2023-03-07T11:08:49.000Z,3476
2023-03-07T11:10:05.000Z,3480
2023-03-07T11:11:21.000Z,3544
2023-03-07T11:12:38.000Z,3360
2023-03-07T11:13:54.000Z,3388
2023-03-07T11:15:10.000Z,3496
2023-03-07T11:16:26.000Z,3776
2023-03-07T11:17:41.000Z,4204
2023-03-07T11:18:58.000Z,4532
2023-03-07T11:20:14.000Z,4512
2023-03-07T11:21:30.000Z,4484
2023-03-07T11:22:46.000Z,4084
2023-03-07T11:24:02.000Z,4124
2023-03-07T11:25:19.000Z,4456
2023-03-07T11:26:35.000Z,4616
2023-03-07T11:27:51.000Z,4236
2023-03-07T11:29:07.000Z,4392
2023-03-07T11:30:23.000Z,4632
2023-03-07T11:31:40.000Z,4788
2023-03-07T11:32:56.229Z,4716
2023-03-07T11:34:11.000Z,4440
2023-03-07T11:35:27.000Z,4308
2023-03-07T11:36:43.000Z,4124
2023-03-07T11:38:00.000Z,3980
2023-03-07T11:39:16.000Z,3688
2023-03-07T11:40:32.000Z,3556
2023-03-07T11:41:48.000Z,3636
2023-03-07T11:43:04.000Z,3868
2023-03-07T11:44:21.000Z,3816
2023-03-07T11:45:37.000Z,3744
2023-03-07T11:46:53.000Z,3688
2023-03-07T11:48:09.000Z,3560
2023-03-07T11:49:25.000Z,3368
2023-03-07T11:50:41.000Z,3084
2023-03-07T11:51:57.000Z,3312
2023-03-07T11:53:13.000Z,3296
2023-03-07T11:54:29.000Z,2776
2023-03-07T11:55:45.000Z,3060
2023-03-07T11:57:02.000Z,3600
2023-03-07T11:58:18.000Z,3880
2023-03-07T11:59:34.000Z,3896
2023-03-07T12:00:50.000Z,3540
2023-03-07T12:02:06.000Z,3164
2023-03-07T12:03:23.000Z,3396
2023-03-07T12:04:39.000Z,3372
2023-03-07T12:05:55.000Z,3572
2023-03-07T12:07:10.000Z,3672
2023-03-07T12:08:26.000Z,3796
2023-03-07T12:09:43.000Z,3720
2023-03-07T12:10:59.137Z,3392
2023-03-07T12:12:15.000Z,3492
2023-03-07T12:13:31.000Z,3736
2023-03-07T12:14:47.000Z,4040
2023-03-07T12:16:04.000Z,4304
2023-03-07T12:17:20.000Z,4444
2023-03-07T12:18:36.000Z,4328
2023-03-07T12:19:52.000Z,4184
2023-03-07T12:21:08.000Z,4088
2023-03-07T12:22:25.000Z,3884
2023-03-07T12:23:40.123Z,4212
2023-03-07T12:24:56.000Z,4348
2023-03-07T12:26:12.000Z,4332
2023-03-07T12:27:28.000Z,3740
2023-03-07T12:28:45.000Z,3688
2023-03-07T12:30:01.000Z,3740
2023-03-07T12:31:17.000Z,3452
2023-03-07T12:32:33.000Z,3196
2023-03-07T12:33:49.000Z,3384
2023-03-07T12:35:05.000Z,3348
2023-03-07T12:36:22.000Z,3164
2023-03-07T12:37:38.000Z,3400
2023-03-07T12:38:54.000Z,3740
2023-03-07T12:40:09.000Z,3700
2023-03-07T12:41:25.000Z,3640
2023-03-07T12:42:42.000Z,3624
2023-03-07T12:43:58.000Z,3728
2023-03-07T12:45:14.000Z,3712
2023-03-07T12:46:30.646Z,3980
2023-03-07T12:47:46.000Z,4164
2023-03-07T12:49:03.036Z,4192
2023-03-07T12:50:19.000Z,4672
2023-03-07T12:51:35.000Z,5044
2023-03-07T12:52:51.000Z,5064
2023-03-07T12:54:07.000Z,5112
2023-03-07T12:55:24.000Z,5268
2023-03-07T12:56:39.000Z,5644
2023-03-07T12:57:55.000Z,5760
2023-03-07T12:59:11.000Z,5452
2023-03-07T13:00:27.000Z,5448
2023-03-07T13:01:44.000Z,5704
2023-03-07T13:03:00.210Z,5836
2023-03-07T13:04:16.000Z,6044
2023-03-07T13:05:32.000Z,5840
2023-03-07T13:06:48.000Z,5756
2023-03-07T13:08:05.000Z,5656
2023-03-07T13:09:21.000Z,5780
2023-03-07T13:10:37.000Z,5672
2023-03-07T13:11:53.000Z,5568
2023-03-07T13:13:08.000Z,5144
2023-03-07T13:14:24.992Z,4784
2023-03-07T13:15:41.000Z,4504
2023-03-07T13:16:57.000Z,4928
2023-03-07T13:18:13.000Z,5308
2023-03-07T13:19:29.000Z,5300
2023-03-07T13:20:46.000Z,5328
2023-03-07T13:22:02.000Z,5480
2023-03-07T13:23:18.000Z,5536
2023-03-07T13:24:34.000Z,5196
2023-03-07T13:25:50.000Z,5592
2023-03-07T13:27:07.000Z,5340
2023-03-07T13:28:23.000Z,5508
2023-03-07T13:29:38.000Z,5424
2023-03-07T13:30:54.000Z,5648
2023-03-07T13:32:10.000Z,5612
2023-03-07T13:33:27.000Z,5224
2023-03-07T13:34:43.000Z,5256
2023-03-07T13:35:59.000Z,5104
2023-03-07T13:37:15.000Z,4956
2023-03-07T13:38:31.000Z,4748
2023-03-07T13:39:48.000Z,4784
2023-03-07T13:41:04.000Z,4972
2023-03-07T13:42:20.000Z,4916
2023-03-07T13:43:36.000Z,4568
2023-03-07T13:44:52.000Z,4672
2023-03-07T13:46:08.000Z,4668
2023-03-07T13:47:24.000Z,4296
2023-03-07T13:48:40.000Z,3776
2023-03-07T13:49:56.000Z,3672
2023-03-07T13:51:12.000Z,4000
2023-03-07T13:52:28.000Z,4116
2023-03-07T13:53:45.000Z,3820
2023-03-07T13:55:01.000Z,3724
2023-03-07T13:56:17.000Z,3712
2023-03-07T13:57:33.000Z,4108
2023-03-07T13:58:49.000Z,4408
2023-03-07T14:00:06.000Z,4396
2023-03-07T14:01:22.000Z,4360
2023-03-07T14:02:37.000Z,4408
2023-03-07T14:03:53.000Z,4316
2023-03-07T14:05:09.959Z,4424
2023-03-07T14:06:26.000Z,4540
2023-03-07T14:07:42.000Z,4724
2023-03-07T14:08:58.000Z,4928
2023-03-07T14:10:14.000Z,5020
2023-03-07T14:11:30.000Z,5092
2023-03-07T14:12:47.000Z,5004
2023-03-07T14:14:03.000Z,4648
2023-03-07T14:15:19.000Z,4504
2023-03-07T14:16:35.000Z,4308
2023-03-07T14:17:51.903Z,4080
2023-03-07T14:19:07.000Z,3860
2023-03-07T14:20:23.000Z,3748
2023-03-07T14:21:39.000Z,3700
2023-03-07T14:22:55.000Z,3456
2023-03-07T14:24:11.000Z,3556
2023-03-07T14:25:28.000Z,3688
2023-03-07T14:26:44.296Z,3292
2023-03-07T14:28:00.000Z,3156
2023-03-07T14:29:16.000Z,3216
2023-03-07T14:30:32.000Z,3168
2023-03-07T14:31:49.000Z,3112
2023-03-07T14:33:05.000Z,3040
2023-03-07T14:34:21.000Z,2912
2023-03-07T14:35:36.000Z,2688
2023-03-07T14:36:52.000Z,2308
2023-03-07T14:38:09.000Z,1904
2023-03-07T14:39:25.000Z,1948
2023-03-07T14:40:41.000Z,1672
2023-03-07T14:41:57.000Z,1552
2023-03-07T14:43:13.864Z,1304
2023-03-07T14:44:30.000Z,924
2023-03-07T14:45:46.000Z,676
2023-03-07T14:47:02.000Z,572
2023-03-07T14:48:18.000Z,604
2023-03-07T14:49:34.000Z,672
2023-03-07T14:50:51.000Z,756
2023-03-07T14:52:06.000Z,844
2023-03-07T14:53:22.000Z,980
2023-03-07T14:54:38.000Z,1016
2023-03-07T14:55:54.836Z,888
2023-03-07T14:57:11.000Z,728
2023-03-07T14:58:27.000Z,724
2023-03-07T14:59:42.000Z,708
2023-03-07T15:00:58.000Z,688
2023-03-07T15:02:14.000Z,868
2023-03-07T15:03:31.000Z,1164
2023-03-07T15:04:47.239Z,1312
2023-03-07T15:06:03.000Z,1960
2023-03-07T15:07:19.000Z,2176
2023-03-07T15:08:35.000Z,2304
2023-03-07T15:09:52.000Z,2216
2023-03-07T15:11:08.000Z,1880
2023-03-07T15:12:24.000Z,1480
2023-03-07T15:13:40.000Z,1608
2023-03-07T15:14:56.000Z,1728
2023-03-07T15:16:12.000Z,1636
2023-03-07T15:17:28.000Z,1596
2023-03-07T15:18:44.000Z,1316
2023-03-07T15:20:00.604Z,1124
2023-03-07T15:21:16.000Z,896
2023-03-07T15:22:33.000Z,768
2023-03-07T15:23:49.000Z,700
2023-03-07T15:25:05.000Z,684
2023-03-07T15:26:21.000Z,724
2023-03-07T15:27:37.768Z,760
2023-03-07T15:28:53.000Z,788
2023-03-07T15:30:10.000Z,768
2023-03-07T15:31:26.000Z,700
2023-03-07T15:32:41.000Z,684
2023-03-07T15:33:57.761Z,720
2023-03-07T15:35:13.000Z,712
2023-03-07T15:36:30.000Z,696
2023-03-07T15:37:46.000Z,676
2023-03-07T15:39:02.000Z,676
2023-03-07T15:40:18.751Z,632
2023-03-07T15:41:34.000Z,580
2023-03-07T15:42:51.000Z,548
2023-03-07T15:44:07.000Z,576
2023-03-07T15:45:23.000Z,580
2023-03-07T15:46:39.000Z,520
2023-03-07T15:47:55.000Z,600
2023-03-07T15:49:11.000Z,568
2023-03-07T15:50:27.000Z,532
2023-03-07T15:51:43.523Z,516
2023-03-07T15:52:59.000Z,576
2023-03-07T15:54:15.000Z,636
2023-03-07T15:55:32.000Z,684
2023-03-07T15:56:48.000Z,708
2023-03-07T15:58:04.506Z,724
2023-03-07T15:59:20.000Z,720
2023-03-07T16:00:36.000Z,704
2023-03-07T16:01:53.000Z,708
2023-03-07T16:03:09.000Z,720
2023-03-07T16:04:25.000Z,752
2023-03-07T16:05:40.000Z,756
2023-03-07T16:06:56.000Z,740
2023-03-07T16:08:13.000Z,716
2023-03-07T16:09:29.000Z,692
2023-03-07T16:10:45.000Z,680
2023-03-07T16:12:01.675Z,684
2023-03-07T16:13:17.000Z,704
2023-03-07T16:14:34.000Z,716
2023-03-07T16:15:50.000Z,712
2023-03-07T16:17:06.000Z,716
2023-03-07T16:18:22.000Z,704
2023-03-07T16:19:38.000Z,680
2023-03-07T16:20:55.000Z,660
2023-03-07T16:22:10.000Z,632
2023-03-07T16:23:26.000Z,604
2023-03-07T16:24:42.000Z,588
2023-03-07T16:25:58.000Z,576
2023-03-07T16:27:15.000Z,560
2023-03-07T16:28:31.233Z,516
2023-03-07T16:29:47.000Z,472
2023-03-07T16:31:03.000Z,448
2023-03-07T16:32:19.000Z,432
2023-03-07T16:33:36.000Z,420
2023-03-07T16:34:52.000Z,404
2023-03-07T16:36:08.414Z,392
2023-03-07T16:37:24.000Z,380
2023-03-07T16:38:39.000Z,368
2023-03-07T16:39:56.000Z,336
2023-03-07T16:41:12.212Z,300
2023-03-07T16:42:28.000Z,260
2023-03-07T16:43:44.621Z,240
2023-03-07T16:45:00.000Z,232
2023-03-07T16:46:17.000Z,240
2023-03-07T16:47:33.000Z,244
2023-03-07T16:48:49.000Z,240
2023-03-07T16:50:05.581Z,232
2023-03-07T16:51:21.000Z,228
2023-03-07T16:52:38.000Z,220
2023-03-07T16:53:54.000Z,208
2023-03-07T16:55:09.000Z,184
2023-03-07T16:56:25.000Z,168
2023-03-07T16:57:41.000Z,156
2023-03-07T16:58:58.000Z,148
2023-03-07T17:00:14.000Z,140
2023-03-07T17:01:30.000Z,124
2023-03-07T17:02:46.000Z,112
2023-03-07T17:04:02.000Z,100
2023-03-07T17:05:18.000Z,92
2023-03-07T17:06:35.000Z,84
2023-03-07T17:07:51.352Z,76
2023-03-07T17:09:07.000Z,72
2023-03-07T17:10:23.000Z,64
2023-03-07T17:11:38.000Z,60
2023-03-07T17:12:55.000Z,56
2023-03-07T17:14:11.350Z,52
2023-03-07T17:15:27.000Z,48
2023-03-07T17:16:43.000Z,44
2023-03-07T17:17:59.000Z,44
2023-03-07T17:19:16.000Z,40
2023-03-07T17:20:32.000Z,32
2023-03-07T17:21:48.000Z,28
2023-03-07T17:23:04.000Z,24
2023-03-07T17:24:20.000Z,20
2023-03-07T17:25:37.000Z,16
2023-03-07T17:26:53.000Z,16
2023-03-07T17:28:08.507Z,12
2023-03-07T17:29:24.000Z,12
2023-03-07T17:30:40.000Z,8
2023-03-07T17:31:57.098Z,8
2023-03-07T17:33:13.000Z,8
2023-03-07T17:34:29.000Z,8
2023-03-07T17:35:45.000Z,4
2023-03-07T17:37:01.000Z,4
2023-03-07T17:38:18.000Z,0
2023-03-07T17:39:34.000Z,4
2023-03-07T17:40:50.467Z,0